sensor_id;sensor_type;location;lat;lon;timestamp;pressure;altitude;pressure_sealevel;temperature;humidity
12913;BME280;6524;51.368;11.984;2023-05-03T04:09:20;101521.66;;;2.22;61.12
12913;BME280;6524;51.368;11.984;2023-05-03T04:14:25;101529.41;;;2.31;60.30
12913;BME280;6524;51.368;11.984;2023-05-03T04:19:26;101531.84;;;2.44;60.83
12913;BME280;6524;51.368;11.984;2023-05-03T04:24:27;101537.03;;;2.47;59.68
12913;BME280;6524;51.368;11.984;2023-05-03T04:29:29;101548.13;;;2.61;58.75
12913;BME280;6524;51.368;11.984;2023-05-03T04:34:30;101551.75;;;2.51;58.82
12913;BME280;6524;51.368;11.984;2023-05-03T04:39:30;101558.81;;;2.39;60.02
12913;BME280;6524;51.368;11.984;2023-05-03T04:44:31;101561.84;;;2.75;59.12
12913;BME280;6524;51.368;11.984;2023-05-03T04:49:31;101564.22;;;2.91;58.81
12913;BME280;6524;51.368;11.984;2023-05-03T04:54:33;101567.22;;;2.61;59.37
12913;BME280;6524;51.368;11.984;2023-05-03T04:59:33;101566.94;;;2.84;59.05
12913;BME280;6524;51.368;11.984;2023-05-03T05:04:34;101569.31;;;2.97;58.74
12913;BME280;6524;51.368;11.984;2023-05-03T05:09:34;101563.53;;;3.33;58.10
12913;BME280;6524;51.368;11.984;2023-05-03T05:14:35;101571.75;;;3.62;57.07
12913;BME280;6524;51.368;11.984;2023-05-03T05:19:35;101574.03;;;3.81;56.70
12913;BME280;6524;51.368;11.984;2023-05-03T05:24:36;101577.88;;;4.09;56.78
12913;BME280;6524;51.368;11.984;2023-05-03T05:29:36;101577.94;;;4.49;56.29
12913;BME280;6524;51.368;11.984;2023-05-03T05:34:36;101588.34;;;4.91;54.91
12913;BME280;6524;51.368;11.984;2023-05-03T05:39:37;101595.72;;;5.12;53.04
12913;BME280;6524;51.368;11.984;2023-05-03T05:44:37;101595.22;;;4.96;52.19
12913;BME280;6524;51.368;11.984;2023-05-03T05:49:38;101601.56;;;5.24;51.42
12913;BME280;6524;51.368;11.984;2023-05-03T05:54:39;101597.47;;;5.51;51.36
12913;BME280;6524;51.368;11.984;2023-05-03T05:59:39;101599.94;;;5.55;50.71
12913;BME280;6524;51.368;11.984;2023-05-03T06:46:01;101610.81;;;7.80;44.74
12913;BME280;6524;51.368;11.984;2023-05-03T06:51:02;101608.22;;;8.04;44.27
12913;BME280;6524;51.368;11.984;2023-05-03T06:56:03;101610.00;;;8.52;42.11
12913;BME280;6524;51.368;11.984;2023-05-03T07:01:04;101612.53;;;9.22;42.01
12913;BME280;6524;51.368;11.984;2023-05-03T07:06:04;101613.50;;;10.23;39.59
12913;BME280;6524;51.368;11.984;2023-05-03T07:11:05;101609.75;;;11.58;37.45
12913;BME280;6524;51.368;11.984;2023-05-03T07:16:05;101614.31;;;13.21;33.81
12913;BME280;6524;51.368;11.984;2023-05-03T07:21:06;101615.59;;;15.44;30.59
12913;BME280;6524;51.368;11.984;2023-05-03T07:26:07;101622.53;;;18.17;26.61
12913;BME280;6524;51.368;11.984;2023-05-03T07:31:07;101615.94;;;21.55;22.98
12913;BME280;6524;51.368;11.984;2023-05-03T07:36:08;101625.63;;;22.97;21.40
12913;BME280;6524;51.368;11.984;2023-05-03T07:41:08;101613.34;;;23.13;21.37
12913;BME280;6524;51.368;11.984;2023-05-03T07:46:09;101606.31;;;21.82;22.38
12913;BME280;6524;51.368;11.984;2023-05-03T07:51:10;101611.72;;;18.07;26.27
12913;BME280;6524;51.368;11.984;2023-05-03T07:56:10;101598.59;;;14.23;30.69
12913;BME280;6524;51.368;11.984;2023-05-03T08:01:10;101595.00;;;13.19;32.15
12913;BME280;6524;51.368;11.984;2023-05-03T08:06:11;101598.28;;;11.94;33.50
12913;BME280;6524;51.368;11.984;2023-05-03T08:11:11;101586.75;;;13.39;32.39
12913;BME280;6524;51.368;11.984;2023-05-03T08:16:12;101596.09;;;14.34;30.97
12913;BME280;6524;51.368;11.984;2023-05-03T08:21:12;101589.06;;;14.04;30.23
12913;BME280;6524;51.368;11.984;2023-05-03T08:26:14;101583.66;;;13.31;32.43
12913;BME280;6524;51.368;11.984;2023-05-03T08:31:14;101585.06;;;14.11;31.19
12913;BME280;6524;51.368;11.984;2023-05-03T08:36:15;101586.75;;;14.70;29.64
12913;BME280;6524;51.368;11.984;2023-05-03T08:41:20;101577.53;;;14.75;29.24
12913;BME280;6524;51.368;11.984;2023-05-03T08:46:23;101576.19;;;15.62;29.32
12913;BME280;6524;51.368;11.984;2023-05-03T08:51:25;101580.56;;;15.11;30.04
12913;BME280;6524;51.368;11.984;2023-05-03T08:56:39;101590.25;;;14.70;30.94
12913;BME280;6524;51.368;11.984;2023-05-03T09:01:41;101581.91;;;15.70;29.92
12913;BME280;6524;51.368;11.984;2023-05-03T09:06:41;101586.69;;;15.25;29.58
12913;BME280;6524;51.368;11.984;2023-05-03T09:11:41;101591.06;;;16.43;28.52
12913;BME280;6524;51.368;11.984;2023-05-03T09:16:43;101581.69;;;16.12;28.51
12913;BME280;6524;51.368;11.984;2023-05-03T09:21:45;101579.97;;;15.20;29.82
12913;BME280;6524;51.368;11.984;2023-05-03T09:26:50;101586.81;;;14.82;29.97
12913;BME280;6524;51.368;11.984;2023-05-03T09:31:58;101583.38;;;14.39;31.62
12913;BME280;6524;51.368;11.984;2023-05-03T09:36:59;101569.81;;;13.26;32.43
12913;BME280;6524;51.368;11.984;2023-05-03T09:42:13;101567.63;;;13.48;32.66
12913;BME280;6524;51.368;11.984;2023-05-03T09:47:13;101571.97;;;14.93;31.66
12913;BME280;6524;51.368;11.984;2023-05-03T09:52:14;101574.75;;;16.09;29.13
12913;BME280;6524;51.368;11.984;2023-05-03T09:57:14;101569.97;;;16.88;27.48
12913;BME280;6524;51.368;11.984;2023-05-03T10:02:15;101571.78;;;16.01;28.26
12913;BME280;6524;51.368;11.984;2023-05-03T10:07:18;101565.16;;;16.93;27.42
12913;BME280;6524;51.368;11.984;2023-05-03T10:12:21;101560.75;;;16.31;28.58
12913;BME280;6524;51.368;11.984;2023-05-03T10:17:25;101558.34;;;15.24;30.33
12913;BME280;6524;51.368;11.984;2023-05-03T10:22:26;101559.59;;;16.72;29.62
12913;BME280;6524;51.368;11.984;2023-05-03T10:32:46;101563.09;;;18.36;27.02
12913;BME280;6524;51.368;11.984;2023-05-03T10:37:48;101554.22;;;17.44;26.45
12913;BME280;6524;51.368;11.984;2023-05-03T10:42:54;101558.41;;;17.71;26.54
12913;BME280;6524;51.368;11.984;2023-05-03T10:58:35;101544.31;;;17.57;26.69
12913;BME280;6524;51.368;11.984;2023-05-03T11:08:51;101542.19;;;17.85;30.17
12913;BME280;6524;51.368;11.984;2023-05-03T11:13:51;101545.84;;;17.95;30.09
12913;BME280;6524;51.368;11.984;2023-05-03T11:18:52;101550.28;;;17.26;29.61
12913;BME280;6524;51.368;11.984;2023-05-03T11:23:53;101548.72;;;15.09;31.16
12913;BME280;6524;51.368;11.984;2023-05-03T11:28:53;101528.31;;;14.82;31.55
12913;BME280;6524;51.368;11.984;2023-05-03T11:33:54;101527.00;;;14.75;32.28
12913;BME280;6524;51.368;11.984;2023-05-03T11:38:54;101519.47;;;15.09;31.57
12913;BME280;6524;51.368;11.984;2023-05-03T11:43:54;101515.66;;;15.13;30.37
12913;BME280;6524;51.368;11.984;2023-05-03T11:48:55;101517.00;;;15.71;30.60
12913;BME280;6524;51.368;11.984;2023-05-03T11:53:59;101521.22;;;16.12;31.11
12913;BME280;6524;51.368;11.984;2023-05-03T11:59:00;101529.13;;;16.14;29.73
12913;BME280;6524;51.368;11.984;2023-05-03T12:04:02;101530.81;;;16.28;29.11
12913;BME280;6524;51.368;11.984;2023-05-03T12:09:13;101530.63;;;16.05;31.71
12913;BME280;6524;51.368;11.984;2023-05-03T12:14:14;101521.34;;;16.11;30.16
12913;BME280;6524;51.368;11.984;2023-05-03T12:19:28;101510.16;;;16.06;30.06
12913;BME280;6524;51.368;11.984;2023-05-03T12:24:29;101507.47;;;16.18;30.52
12913;BME280;6524;51.368;11.984;2023-05-03T12:29:30;101512.31;;;16.00;30.28
12913;BME280;6524;51.368;11.984;2023-05-03T12:34:33;101505.34;;;16.60;29.53
12913;BME280;6524;51.368;11.984;2023-05-03T12:39:34;101493.34;;;16.90;29.06
12913;BME280;6524;51.368;11.984;2023-05-03T12:44:38;101498.28;;;17.43;29.57
12913;BME280;6524;51.368;11.984;2023-05-03T12:49:39;101497.13;;;17.23;28.81
12913;BME280;6524;51.368;11.984;2023-05-03T12:54:40;101501.47;;;18.04;27.19
12913;BME280;6524;51.368;11.984;2023-05-03T12:59:41;101495.06;;;17.84;27.06
12913;BME280;6524;51.368;11.984;2023-05-03T13:04:42;101486.34;;;17.00;28.94
12913;BME280;6524;51.368;11.984;2023-05-03T13:09:43;101485.13;;;17.28;29.03
12913;BME280;6524;51.368;11.984;2023-05-03T13:14:46;101469.13;;;16.93;28.29
12913;BME280;6524;51.368;11.984;2023-05-03T13:19:47;101479.19;;;17.25;27.92
12913;BME280;6524;51.368;11.984;2023-05-03T13:24:48;101468.78;;;17.33;28.02
12913;BME280;6524;51.368;11.984;2023-05-03T13:29:49;101452.28;;;16.68;28.13
12913;BME280;6524;51.368;11.984;2023-05-03T13:34:49;101455.81;;;16.08;28.76
12913;BME280;6524;51.368;11.984;2023-05-03T13:39:50;101450.91;;;16.39;28.39
12913;BME280;6524;51.368;11.984;2023-05-03T13:44:50;101445.09;;;16.21;29.10
12913;BME280;6524;51.368;11.984;2023-05-03T13:49:54;101449.06;;;16.52;28.21
12913;BME280;6524;51.368;11.984;2023-05-03T13:54:55;101434.97;;;16.50;29.01
12913;BME280;6524;51.368;11.984;2023-05-03T13:59:57;101440.09;;;16.53;27.90
12913;BME280;6524;51.368;11.984;2023-05-03T14:04:58;101440.84;;;16.18;27.96
12913;BME280;6524;51.368;11.984;2023-05-03T14:09:58;101433.59;;;16.20;28.54
12913;BME280;6524;51.368;11.984;2023-05-03T14:15:02;101417.66;;;16.44;28.04
12913;BME280;6524;51.368;11.984;2023-05-03T14:20:03;101430.63;;;16.12;28.18
12913;BME280;6524;51.368;11.984;2023-05-03T14:25:08;101420.09;;;16.35;28.82
12913;BME280;6524;51.368;11.984;2023-05-03T14:30:08;101411.03;;;16.13;27.51
12913;BME280;6524;51.368;11.984;2023-05-03T14:35:10;101410.59;;;16.43;29.11
12913;BME280;6524;51.368;11.984;2023-05-03T14:40:11;101406.59;;;16.01;28.40
12913;BME280;6524;51.368;11.984;2023-05-03T14:45:12;101402.38;;;15.86;28.33
12913;BME280;6524;51.368;11.984;2023-05-03T14:50:14;101404.50;;;15.81;30.95
12913;BME280;6524;51.368;11.984;2023-05-03T14:55:16;101396.50;;;15.81;30.26
12913;BME280;6524;51.368;11.984;2023-05-03T15:00:17;101393.06;;;15.16;30.76
12913;BME280;6524;51.368;11.984;2023-05-03T15:05:21;101387.75;;;15.16;31.28
12913;BME280;6524;51.368;11.984;2023-05-03T15:10:22;101386.81;;;14.90;30.50
12913;BME280;6524;51.368;11.984;2023-05-03T15:15:22;101389.63;;;14.49;31.28
12913;BME280;6524;51.368;11.984;2023-05-03T15:20:23;101381.56;;;14.23;31.28
12913;BME280;6524;51.368;11.984;2023-05-03T15:25:24;101377.47;;;13.76;30.58
12913;BME280;6524;51.368;11.984;2023-05-03T15:30:25;101379.75;;;13.68;31.88
12913;BME280;6524;51.368;11.984;2023-05-03T15:35:25;101375.97;;;13.58;31.81
12913;BME280;6524;51.368;11.984;2023-05-03T15:40:27;101368.44;;;13.37;31.86
12913;BME280;6524;51.368;11.984;2023-05-03T15:45:28;101370.28;;;13.49;30.98
12913;BME280;6524;51.368;11.984;2023-05-03T15:50:29;101368.75;;;13.17;31.83
12913;BME280;6524;51.368;11.984;2023-05-03T15:55:31;101370.34;;;13.34;30.64
12913;BME280;6524;51.368;11.984;2023-05-03T16:00:33;101364.75;;;12.81;30.95
12913;BME280;6524;51.368;11.984;2023-05-03T16:05:34;101360.41;;;13.09;29.90
12913;BME280;6524;51.368;11.984;2023-05-03T16:10:34;101349.97;;;13.06;31.50
12913;BME280;6524;51.368;11.984;2023-05-03T16:15:36;101350.34;;;12.99;31.30
12913;BME280;6524;51.368;11.984;2023-05-03T16:20:37;101356.25;;;12.90;31.51
12913;BME280;6524;51.368;11.984;2023-05-03T16:25:38;101350.50;;;12.68;32.13
12913;BME280;6524;51.368;11.984;2023-05-03T16:30:38;101346.13;;;12.97;32.72
12913;BME280;6524;51.368;11.984;2023-05-03T16:35:40;101334.59;;;12.68;32.67
12913;BME280;6524;51.368;11.984;2023-05-03T16:40:40;101345.22;;;12.82;33.21
12913;BME280;6524;51.368;11.984;2023-05-03T16:45:42;101337.66;;;12.76;32.93
12913;BME280;6524;51.368;11.984;2023-05-03T16:50:43;101333.31;;;12.29;33.44
12913;BME280;6524;51.368;11.984;2023-05-03T16:55:43;101335.38;;;12.70;33.71
12913;BME280;6524;51.368;11.984;2023-05-03T17:00:44;101334.09;;;12.61;33.26
12913;BME280;6524;51.368;11.984;2023-05-03T17:05:45;101328.56;;;12.80;33.08
12913;BME280;6524;51.368;11.984;2023-05-03T17:10:46;101330.34;;;12.49;34.19
12913;BME280;6524;51.368;11.984;2023-05-03T17:15:46;101323.34;;;12.48;34.29
12913;BME280;6524;51.368;11.984;2023-05-03T17:20:47;101322.28;;;12.67;33.96
12913;BME280;6524;51.368;11.984;2023-05-03T17:25:47;101321.84;;;12.44;34.71
12913;BME280;6524;51.368;11.984;2023-05-03T17:30:48;101323.56;;;12.29;34.39
12913;BME280;6524;51.368;11.984;2023-05-03T17:35:49;101316.72;;;12.41;34.44
12913;BME280;6524;51.368;11.984;2023-05-03T17:41:11;101316.03;;;12.53;34.69
12913;BME280;6524;51.368;11.984;2023-05-03T17:46:18;101321.25;;;11.93;35.55
12913;BME280;6524;51.368;11.984;2023-05-03T17:51:19;101313.91;;;11.82;35.50
12913;BME280;6524;51.368;11.984;2023-05-03T17:56:21;101316.63;;;12.13;35.68
12913;BME280;6524;51.368;11.984;2023-05-03T18:01:32;101313.50;;;11.90;37.25
12913;BME280;6524;51.368;11.984;2023-05-03T18:06:34;101320.13;;;11.97;38.03
12913;BME280;6524;51.368;11.984;2023-05-03T18:11:40;101331.19;;;11.40;39.20
12913;BME280;6524;51.368;11.984;2023-05-03T18:16:45;101329.75;;;11.51;39.26
12913;BME280;6524;51.368;11.984;2023-05-03T18:21:46;101325.38;;;11.34;40.26
12913;BME280;6524;51.368;11.984;2023-05-03T18:26:47;101333.88;;;10.55;41.78
12913;BME280;6524;51.368;11.984;2023-05-03T18:31:49;101336.34;;;10.41;42.25
12913;BME280;6524;51.368;11.984;2023-05-03T18:36:57;101340.22;;;10.34;42.32
12913;BME280;6524;51.368;11.984;2023-05-03T18:41:57;101327.47;;;9.88;43.57
12913;BME280;6524;51.368;11.984;2023-05-03T18:46:58;101327.72;;;10.01;43.29
12913;BME280;6524;51.368;11.984;2023-05-03T18:51:59;101318.41;;;9.94;43.00
12913;BME280;6524;51.368;11.984;2023-05-03T18:56:59;101326.47;;;9.91;44.07
12913;BME280;6524;51.368;11.984;2023-05-03T19:01:59;101321.00;;;10.13;43.41
12913;BME280;6524;51.368;11.984;2023-05-03T19:07:00;101323.31;;;10.01;43.50
12913;BME280;6524;51.368;11.984;2023-05-03T19:12:01;101323.34;;;9.83;43.97
12913;BME280;6524;51.368;11.984;2023-05-03T19:17:02;101328.97;;;9.56;44.67
12913;BME280;6524;51.368;11.984;2023-05-03T19:22:02;101338.94;;;9.10;46.76
12913;BME280;6524;51.368;11.984;2023-05-03T19:27:03;101338.44;;;9.02;46.33
12913;BME280;6524;51.368;11.984;2023-05-03T19:32:04;101330.28;;;8.87;46.50
12913;BME280;6524;51.368;11.984;2023-05-03T19:37:04;101327.56;;;8.69;47.07
12913;BME280;6524;51.368;11.984;2023-05-03T19:42:05;101325.69;;;8.93;46.52
12913;BME280;6524;51.368;11.984;2023-05-03T19:47:05;101322.03;;;8.75;47.29
12913;BME280;6524;51.368;11.984;2023-05-03T19:52:06;101327.06;;;8.81;47.26
12913;BME280;6524;51.368;11.984;2023-05-03T19:57:07;101328.84;;;8.80;47.54
12913;BME280;6524;51.368;11.984;2023-05-03T20:02:07;101323.34;;;8.22;49.17
12913;BME280;6524;51.368;11.984;2023-05-03T20:07:08;101325.91;;;8.46;48.47
12913;BME280;6524;51.368;11.984;2023-05-03T20:12:08;101323.41;;;8.63;48.96
12913;BME280;6524;51.368;11.984;2023-05-03T20:17:11;101326.53;;;8.30;49.11
12913;BME280;6524;51.368;11.984;2023-05-03T20:22:11;101323.59;;;8.16;50.71
12913;BME280;6524;51.368;11.984;2023-05-03T20:27:12;101318.22;;;7.75;50.83
12913;BME280;6524;51.368;11.984;2023-05-03T20:32:16;101320.63;;;7.58;51.35
12913;BME280;6524;51.368;11.984;2023-05-03T20:37:16;101317.97;;;7.81;51.08
12913;BME280;6524;51.368;11.984;2023-05-03T20:42:17;101310.91;;;7.36;51.80
12913;BME280;6524;51.368;11.984;2023-05-03T20:47:18;101317.69;;;6.95;52.91
12913;BME280;6524;51.368;11.984;2023-05-03T20:52:18;101316.25;;;6.86;52.60
12913;BME280;6524;51.368;11.984;2023-05-03T20:57:19;101307.09;;;6.73;53.25
12913;BME280;6524;51.368;11.984;2023-05-03T21:02:19;101303.25;;;6.56;53.16
12913;BME280;6524;51.368;11.984;2023-05-03T21:07:20;101312.44;;;6.43;54.21
12913;BME280;6524;51.368;11.984;2023-05-03T21:12:20;101312.94;;;6.28;54.57
12913;BME280;6524;51.368;11.984;2023-05-03T21:17:21;101315.25;;;6.10;54.79
12913;BME280;6524;51.368;11.984;2023-05-03T21:22:21;101325.06;;;6.04;55.14
12913;BME280;6524;51.368;11.984;2023-05-03T21:27:21;101320.91;;;5.98;55.43
12913;BME280;6524;51.368;11.984;2023-05-03T21:32:22;101319.28;;;6.21;54.59
12913;BME280;6524;51.368;11.984;2023-05-03T21:37:22;101311.63;;;5.86;55.31
12913;BME280;6524;51.368;11.984;2023-05-03T21:42:22;101314.50;;;5.79;55.56
12913;BME280;6524;51.368;11.984;2023-05-03T21:47:23;101307.72;;;5.72;56.29
12913;BME280;6524;51.368;11.984;2023-05-03T21:52:23;101303.59;;;5.64;56.38
12913;BME280;6524;51.368;11.984;2023-05-03T21:57:24;101301.78;;;5.67;55.84
12913;BME280;6524;51.368;11.984;2023-05-03T22:02:25;101303.66;;;5.01;57.59
12913;BME280;6524;51.368;11.984;2023-05-03T22:07:25;101308.34;;;5.20;56.62
12913;BME280;6524;51.368;11.984;2023-05-03T22:12:26;101305.91;;;5.14;57.03
12913;BME280;6524;51.368;11.984;2023-05-03T22:17:26;101304.94;;;4.86;57.34
12913;BME280;6524;51.368;11.984;2023-05-03T22:22:27;101300.06;;;5.05;57.08
12913;BME280;6524;51.368;11.984;2023-05-03T22:27:27;101300.03;;;4.73;58.44
12913;BME280;6524;51.368;11.984;2023-05-03T22:32:28;101300.94;;;4.72;57.82
12913;BME280;6524;51.368;11.984;2023-05-03T22:37:28;101305.16;;;4.08;59.62
12913;BME280;6524;51.368;11.984;2023-05-03T22:42:29;101304.44;;;4.39;59.52
12913;BME280;6524;51.368;11.984;2023-05-03T22:47:29;101299.75;;;4.52;58.32
12913;BME280;6524;51.368;11.984;2023-05-03T22:52:30;101292.91;;;4.46;58.44
12913;BME280;6524;51.368;11.984;2023-05-03T22:57:31;101297.22;;;4.47;58.21
12913;BME280;6524;51.368;11.984;2023-05-03T23:02:31;101292.06;;;4.44;58.06
12913;BME280;6524;51.368;11.984;2023-05-03T23:07:31;101292.16;;;4.41;57.80
12913;BME280;6524;51.368;11.984;2023-05-03T23:12:32;101292.22;;;4.38;57.80
12913;BME280;6524;51.368;11.984;2023-05-03T23:17:33;101290.38;;;4.43;57.48
12913;BME280;6524;51.368;11.984;2023-05-03T23:22:33;101293.34;;;4.29;57.92
12913;BME280;6524;51.368;11.984;2023-05-03T23:27:34;101283.19;;;4.15;57.97
12913;BME280;6524;51.368;11.984;2023-05-03T23:32:34;101285.66;;;3.84;58.90
12913;BME280;6524;51.368;11.984;2023-05-03T23:37:35;101280.47;;;3.82;58.98
12913;BME280;6524;51.368;11.984;2023-05-03T23:42:36;101276.16;;;3.81;59.26
12913;BME280;6524;51.368;11.984;2023-05-03T23:47:38;101268.69;;;3.65;59.37
12913;BME280;6524;51.368;11.984;2023-05-03T23:52:40;101271.34;;;3.63;59.10
12913;BME280;6524;51.368;11.984;2023-05-03T23:57:40;101272.22;;;3.23;60.01
